• Join FlightAware (Why Join?)
  • Login
  • US Flag 
07:54AM EDT


 

Airport Tracker/Info


-or-


 

Live Flight TrackerFlight Track Log ✈ ENY3640 ✈ 18-Aug-2014 ✈ KLAX - KIAH

Flight Track Log - Related Links

Times and Time Zones

All times are in EDT time to prevent confusion due to time zone crossing. See the ENY3640 flight status page for this flight to view local times or setup timezone preferences in your user account.

Time Position Orientation Groundspeed Altitude Reporting Facility
EDT Latitude Longitude Course Direction KTS MPH feet Rate Location/Type
05:39PM 33.9306 -118.4467 96° East 169 194 1,500  Level Los Angeles Center
05:40PM 33.8919 -118.5111 234° Southwest 230 265 3,000 1,800 Climbing Los Angeles Center
05:41PM 33.9047 -117.9123 95° East  Level Estimated
05:41PM 33.8289 -118.5547 210° Southwest 275 316 5,300  Level Los Angeles Center
05:42PM 33.8917 -117.7471 95° East  Level Estimated
05:42PM 33.7592 -118.5383 169° South 277 319 7,300  Level Los Angeles Center
05:43PM 33.8784 -117.5820 95° East  Level Estimated
05:43PM 33.6839 -118.4758 145° Southeast 310 357 9,800  Level Los Angeles Center
05:44PM 33.8649 -117.4170 96° East  Level Estimated
05:44PM 33.6525 -118.3747 110° East 322 371 11,000  Level Los Angeles Center
05:45PM 33.6433 -118.2594 95° East 353 406 13,300 1,860 Climbing Los Angeles Center
05:46PM 33.6453 -118.1144 89° East 367 422 14,900 1,620 Climbing Los Angeles Center
05:47PM 33.6447 -117.9886 90° East 379 436 16,700 1,620 Climbing Los Angeles Center
05:48PM 33.6444 -117.8614 90° East 380 437 18,300 1,440 Climbing Los Angeles Center
05:49PM 33.6433 -117.7300 91° East 393 452 19,700 1,320 Climbing Los Angeles Center
05:50PM 33.6433 -117.5978 90° East 397 457 21,100 1,200 Climbing Los Angeles Center
05:51PM 33.6425 -117.4644 90° East 399 459 22,300 1,200 Climbing Los Angeles Center
05:52PM 33.6406 -117.2989 91° East 412 474 23,600 1,080 Climbing Los Angeles Center
05:53PM 33.6397 -117.1581 90° East 422 486 24,600 960 Climbing Los Angeles Center
05:54PM 33.6369 -117.0133 91° East 433 498 25,600 960 Climbing Los Angeles Center
05:55PM 33.6100 -116.8703 103° East 440 506 26,600 960 Climbing Los Angeles Center
05:56PM 33.5853 -116.7036 100° East 447 514 27,700 900 Climbing Los Angeles Center
05:57PM 33.5631 -116.5544 100° East 449 517 28,500 720 Climbing Los Angeles Center
05:58PM 33.5397 -116.4022 100° East 456 525 29,300 720 Climbing Los Angeles Center
05:59PM 33.5164 -116.2494 100° East 459 528 30,100 720 Climbing Los Angeles Center
06:00PM 33.4958 -116.0928 99° East 469 540 30,800 660 Climbing Los Angeles Center
06:01PM 33.4753 -115.9344 99° East 474 545 31,500 720 Climbing Los Angeles Center
06:02PM 33.4500 -115.7436 99° East 478 550 32,400 720 Climbing Los Angeles Center
06:03PM 33.4278 -115.5847 99° East 480 552 33,100 600 Climbing Los Angeles Center
06:05PM 33.4072 -115.4256 99° East 482 555 33,700 480 Climbing Los Angeles Center
06:06PM 33.3847 -115.2658 100° East 485 558 34,200 480 Climbing Los Angeles Center
06:07PM 33.3628 -115.1053 99° East 489 563 34,700 480 Climbing Los Angeles Center
06:08PM 33.3392 -114.9433 100° East 491 565 35,200 480 Climbing Los Angeles Center
06:09PM 33.3133 -114.7478 99° East 497 572 35,800 480 Climbing Los Angeles Center
06:10PM 33.2911 -114.5867 99° East 495 570 36,300 480 Climbing Los Angeles Center
06:11PM 33.2675 -114.4247 100° East 495 570 36,800 420 Climbing Los Angeles Center
06:11PM 33.2564 -114.3308 98° East 493 567 37,000 120 Climbing Albuquerque Center
06:12PM 33.2328 -114.1689 100° East 494 568 37,000  Level Albuquerque Center
06:13PM 33.2086 -114.0047 100° East 496 571 37,000  Level Albuquerque Center
06:14PM 33.1844 -113.8408 100° East 498 573 37,000  Level Albuquerque Center
06:15PM 33.1683 -113.7422 101° East 498 573 37,000  Level Los Angeles Center
06:16PM 33.1442 -113.5794 100° East 497 572 37,000  Level Los Angeles Center
06:16PM 33.1353 -113.5164 100° East 498 573 37,000  Level Albuquerque Center
06:17PM 33.1064 -113.3233 100° East 495 570 37,000  Level Albuquerque Center
06:19PM 33.0808 -113.1633 101° East 495 570 37,000  Level Albuquerque Center
06:20PM 33.0567 -113.0031 100° East 492 566 37,000  Level Albuquerque Center
06:21PM 33.0314 -112.8431 101° East 492 566 37,000  Level Albuquerque Center
06:22PM 33.0064 -112.6836 101° East 491 565 37,000  Level Albuquerque Center
06:23PM 32.9803 -112.5258 101° East 486 559 37,000  Level Albuquerque Center
06:24PM 32.9547 -112.3661 101° East 486 559 37,000  Level Albuquerque Center
06:25PM 32.9281 -112.2014 101° East 487 560 37,000  Level Albuquerque Center
06:26PM 32.9031 -112.0436 101° East 487 560 37,000  Level Albuquerque Center
06:27PM 32.8772 -111.8867 101° East 487 560 37,000  Level Albuquerque Center
06:28PM 32.8467 -111.6986 101° East 487 560 37,000  Level Albuquerque Center
06:29PM 32.8197 -111.5417 102° East 487 560 37,000  Level Albuquerque Center
06:30PM 32.7933 -111.3856 101° East 487 560 37,000  Level Albuquerque Center
06:31PM 32.7675 -111.2286 101° East 487 560 37,000  Level Albuquerque Center
06:32PM 32.7400 -111.0728 102° East 485 558 37,000  Level Albuquerque Center
06:33PM 32.7125 -110.9150 102° East 486 559 37,000  Level Albuquerque Center
06:34PM 32.6808 -110.7275 101° East 486 559 37,000  Level Albuquerque Center
06:35PM 32.6528 -110.5708 102° East 486 559 37,000  Level Albuquerque Center
06:36PM 32.6250 -110.4133 102° East 487 560 37,000  Level Albuquerque Center
06:37PM 32.5953 -110.2508 102° East 487 560 37,000  Level Albuquerque Center
06:38PM 32.5675 -110.0956 102° East 487 560 37,000  Level Albuquerque Center
06:39PM 32.5392 -109.9392 102° East 487 560 37,000  Level Albuquerque Center
06:40PM 32.5100 -109.7842 103° East 487 560 37,000  Level Albuquerque Center
06:41PM 32.4800 -109.6258 103° East 490 564 37,000  Level Albuquerque Center
06:42PM 32.4508 -109.4703 102° East 490 564 37,000  Level Albuquerque Center
06:43PM 32.4164 -109.2850 102° East 489 563 37,000  Level Albuquerque Center
06:44PM 32.3872 -109.1306 103° East 488 562 37,000  Level Albuquerque Center
06:45PM 32.3581 -108.9756 103° East 488 562 37,000  Level Albuquerque Center
06:46PM 32.3289 -108.8217 103° East 488 562 37,000  Level Albuquerque Center
06:47PM 32.2992 -108.6658 103° East 488 562 37,000  Level Albuquerque Center
06:48PM 32.2700 -108.5106 102° East 488 562 37,000  Level Albuquerque Center
06:49PM 32.2342 -108.3308 103° East 488 562 37,000  Level Albuquerque Center
06:50PM 32.2028 -108.1747 103° East 488 562 37,000  Level Albuquerque Center
06:51PM 32.1728 -108.0192 103° East 488 562 37,000  Level Albuquerque Center
06:52PM 32.1422 -107.8633 103° East 489 563 37,000  Level Albuquerque Center
06:53PM 32.1114 -107.7086 103° East 489 563 37,000  Level Albuquerque Center
06:54PM 32.0728 -107.5233 104° East 489 563 37,000  Level Albuquerque Center
06:55PM 32.0431 -107.3703 103° East 488 562 37,000  Level Albuquerque Center
06:57PM 32.0119 -107.2147 103° East 489 563 37,000  Level Albuquerque Center
06:58PM 31.9808 -107.0617 103° East 489 563 37,000  Level Albuquerque Center
06:59PM 31.9489 -106.9075 104° East 489 563 37,000  Level Albuquerque Center
07:00PM 31.9100 -106.7244 104° East 486 559 37,000  Level Albuquerque Center
07:01PM 31.8775 -106.5703 104° East 487 560 37,000  Level Albuquerque Center
07:02PM 31.8461 -106.4178 104° East 498 573 37,000  Level Albuquerque Center
07:03PM 31.8039 -106.2656 108° East 496 571 37,000  Level Albuquerque Center
07:04PM 31.7422 -106.1222 117° Southeast 492 566 37,000  Level Albuquerque Center
07:05PM 31.6828 -105.9783 116° Southeast 491 565 37,000  Level Albuquerque Center
07:06PM 31.6100 -105.8067 116° Southeast 491 565 37,000  Level Albuquerque Center
07:07PM 31.5503 -105.6619 116° Southeast 491 565 37,000  Level Albuquerque Center
07:08PM 31.4906 -105.5183 116° Southeast 491 565 37,000  Level Albuquerque Center
07:09PM 31.4308 -105.3742 116° Southeast 491 565 37,000  Level Albuquerque Center
07:10PM 31.3697 -105.2314 117° Southeast 491 565 37,000  Level Albuquerque Center
07:11PM 31.3100 -105.0878 116° Southeast 491 565 37,000  Level Albuquerque Center
07:12PM 31.2481 -104.9464 117° Southeast 488 562 37,000  Level Albuquerque Center
07:13PM 31.1869 -104.8031 116° Southeast 487 560 37,000  Level Albuquerque Center
07:14PM 31.1258 -104.6606 117° Southeast 487 560 37,000  Level Albuquerque Center
07:15PM 31.0636 -104.5183 117° Southeast 488 562 37,000  Level Albuquerque Center
07:16PM 31.0017 -104.3764 117° Southeast 488 562 37,000  Level Albuquerque Center
07:17PM 30.9269 -104.2081 117° Southeast 488 562 37,000  Level Albuquerque Center
07:18PM 30.8653 -104.0683 117° Southeast 487 560 37,000  Level Albuquerque Center
07:19PM 30.8031 -103.9278 117° Southeast 487 560 37,000  Level Albuquerque Center
07:20PM 30.7414 -103.7894 117° Southeast 486 559 37,000  Level Albuquerque Center
07:21PM 30.6731 -103.6331 117° Southeast 486 559 37,000 300 Level Albuquerque Center
07:22PM 30.6108 -103.4919 117° Southeast 487 560 37,700 720 Climbing Albuquerque Center
07:23PM 30.5506 -103.3558 117° Southeast 482 555 38,500 600 Climbing Albuquerque Center
07:24PM 30.4908 -103.2231 118° Southeast 473 544 39,000 240 Climbing Albuquerque Center
07:25PM 30.4317 -103.0883 117° Southeast 472 543 39,000  Level Albuquerque Center
07:26PM 30.3714 -102.9542 117° Southeast 472 543 39,000  Level Albuquerque Center
07:27PM 30.3119 -102.8211 117° Southeast 472 543 39,000  Level Albuquerque Center
07:28PM 30.2400 -102.6606 117° Southeast 471 542 39,000  Level Albuquerque Center
07:29PM 30.2172 -102.6097 117° Southeast 471 542 39,000  Level Houston Center
07:30PM 30.1569 -102.4775 118° Southeast 471 542 39,000  Level Houston Center
07:31PM 30.0836 -102.3183 118° Southeast 470 541 39,000  Level Houston Center
07:32PM 30.0225 -102.1842 118° Southeast 471 542 39,000  Level Houston Center
07:33PM 29.9672 -102.0647 118° Southeast 470 541 39,000  Level Houston Center
07:34PM 29.8933 -101.9075 118° Southeast 469 540 39,000  Level Houston Center
07:35PM 29.8325 -101.7744 118° Southeast 469 540 39,000  Level Houston Center
07:36PM 29.7703 -101.6422 118° Southeast 469 540 39,000  Level Houston Center
07:37PM 29.7094 -101.5114 118° Southeast 469 540 39,000  Level Houston Center
07:38PM 29.6481 -101.3783 118° Southeast 469 540 39,000  Level Houston Center
07:39PM 29.5847 -101.2478 119° Southeast 470 541 39,000  Level Houston Center
07:40PM 29.5236 -101.1153 118° Southeast 470 541 39,000  Level Houston Center
07:41PM 29.4492 -100.9572 118° Southeast 470 541 39,000  Level Houston Center
07:42PM 29.3969 -100.8217 114° Southeast 470 541 39,000  Level Houston Center
07:43PM 29.3394 -100.6883 116° Southeast 470 541 39,000  Level Houston Center
07:44PM 29.2842 -100.5553 115° Southeast 469 540 39,000  Level Houston Center
07:45PM 29.2406 -100.4150 110° East 469 540 39,000  Level Houston Center
07:46PM 29.1875 -100.2483 110° East 468 539 39,000  Level Houston Center
07:47PM 29.1467 -100.1194 110° East 468 539 39,000  Level Houston Center
07:48PM 29.1000 -99.9706 110° East 468 539 39,000  Level Houston Center
07:49PM 29.0561 -99.8314 110° East 468 539 39,000  Level Houston Center
07:50PM 29.0111 -99.6936 110° East 468 539 39,000  Level Houston Center
07:52PM 28.9664 -99.5553 110° East 467 537 39,000  Level Houston Center
07:53PM 28.9231 -99.4167 110° East 467 537 39,000 -60 Level Houston Center
07:54PM 28.8744 -99.2694 111° Southeast 466 536 38,900  Descending Houston Center
07:55PM 28.8294 -99.1303 110° East 465 535 39,000  Climbing Houston Center
07:56PM 28.7742 -98.9639 111° Southeast 464 534 39,000  Level Houston Center
07:57PM 28.7569 -98.8203 98° East 464 534 39,000  Level Houston Center
07:58PM 28.7922 -98.6717 75° East 453 521 39,000  Level Houston Center
07:59PM 28.8356 -98.5372 70° East 454 522 39,000  Level Houston Center
08:00PM 28.8772 -98.4031 70° East 453 521 39,000  Level Houston Center
08:01PM 28.9228 -98.2569 70° East 454 522 39,000  Level Houston Center
08:02PM 28.9656 -98.1222 70° East 454 522 39,000  Level Houston Center
08:03PM 29.0100 -97.9761 71° East 454 522 39,000  Level Houston Center
08:04PM 29.0525 -97.8400 70° East 454 522 39,000  Level Houston Center
08:05PM 29.0953 -97.7047 70° East 455 524 39,000  Level Houston Center
08:06PM 29.1364 -97.5681 71° East 455 524 39,000  Level Houston Center
08:07PM 29.1786 -97.4303 71° East 458 527 39,000 -960 Level Houston Center
08:08PM 29.2200 -97.2908 71° East 462 532 37,100 -2,100 Descending Houston Center
08:09PM 29.2639 -97.1494 70° East 471 542 34,700 -2,400 Descending Houston Center
08:10PM 29.3064 -97.0061 71° East 474 545 32,200 -2,640 Descending Houston Center
08:11PM 29.3614 -96.8267 71° East 472 543 29,100 -2,640 Descending Houston Center
08:12PM 29.3792 -96.7625 72° East 454 522 27,900 -2,220 Descending Houston Center
08:12PM 29.3933 -96.7192 69° East 447 514 27,100 -2,460 Descending Houston Center
08:13PM 29.4206 -96.6264 71° East 433 498 25,400 -2,340 Descending Houston Center
08:13PM 29.4322 -96.5878 71° East 441 507 24,700 -2,460 Descending Houston Center
08:14PM 29.4597 -96.4928 72° East 427 491 22,900 -2,880 Descending Houston Center
08:14PM 29.4769 -96.4361 71° East 424 488 21,800 -2,460 Descending Houston Center
08:15PM 29.5006 -96.3539 72° East 408 470 20,200 -2,280 Descending Houston Center
08:15PM 29.5128 -96.3147 70° East 407 468 19,500 -1,920 Descending Houston Center
08:16PM 29.5350 -96.2397 71° East 385 443 18,300 -1,860 Descending Houston Center
08:16PM 29.5472 -96.2008 70° East 385 443 17,600 -1,620 Descending Houston Center
08:17PM 29.5853 -96.1167 63° Northeast 360 414 16,500 -1,500 Descending Houston Center
08:17PM 29.5956 -96.0981 58° Northeast 367 422 16,100 -1,680 Descending Houston Center
08:18PM 29.6350 -96.0125 62° Northeast 361 415 14,800 -1,560 Descending Houston Center
08:18PM 29.6450 -95.9931 59° Northeast 364 419 14,500 -1,500 Descending Houston Center
08:19PM 29.6811 -95.9136 62° Northeast 351 404 13,300 -1,380 Descending Houston Center
08:19PM 29.6906 -95.8950 60° Northeast 351 404 13,100 -1,380 Descending Houston Center
08:20PM 29.7253 -95.8194 62° Northeast 310 357 11,900 -1,500 Descending Houston Center
08:20PM 29.7325 -95.8072 56° Northeast 319 367 11,600 -1,800 Descending Houston Center
08:21PM 29.7644 -95.7403 61° Northeast 307 353 10,300 -1,680 Descending Houston Center
08:21PM 29.7736 -95.7208 61° Northeast 312 359 9,900 -1,260 Descending Houston Center
08:22PM 29.8031 -95.6539 63° Northeast 302 348 9,000 -900 Descending Houston Center
08:22PM 29.8131 -95.6358 57° Northeast 305 351 9,000 -240 Level Houston Center
08:23PM 29.8436 -95.5697 62° Northeast 291 335 8,800 -840 Descending Houston Center
08:23PM 29.8589 -95.5369 62° Northeast 296 341 8,200 -1,500 Descending Houston Center
08:24PM 29.8825 -95.4881 61° Northeast 290 334 7,300 -1,560 Descending Houston Center
08:24PM 29.8922 -95.4536 72° East 291 335 6,600 -1,320 Descending Houston Center
08:25PM 29.8914 -95.4003 91° East 276 318 6,000 -600 Descending Houston Center
08:25PM 29.8928 -95.3631 88° East 283 326 6,000  Level Houston Center
08:26PM 29.8911 -95.3064 92° East 275 316 6,000  Level Houston Center
08:26PM 29.8917 -95.2747 89° East 279 321 6,000 -1,800 Level Houston Center
08:27PM 29.8911 -95.2147 91° East 266 306 4,000 -2,700 Descending Houston Center
08:28PM 29.8919 -95.1875 88° East 275 316 3,300 -2,100 Descending Houston Center
08:28PM 29.8919 -95.1328 90° East 278 320 2,100 -1,260 Descending Houston Center
08:29PM 29.8961 -95.1025 81° East 272 313 2,000 -120 Descending Houston Center
08:29PM 29.9275 -95.0872 23° Northeast 244 281 2,000  Level Houston Center
08:30PM 29.9483 -95.1075 320° Northwest 248 285 2,000  Level Houston Center
08:30PM 29.9711 -95.1494 302° West 214 246 2,000  Level Houston Center
08:31PM 29.9797 -95.1681 298° West 232 267 2,000 -420 Level Houston Center
08:31PM 29.9769 -95.2139 266° West 194 223 1,600 -840 Descending Houston Center
08:32PM 29.9775 -95.2417 271° West 205 236 1,200 -840 Descending Houston Center
08:32PM 29.9778 -95.2669 271° West 152 175 800 -780 Descending Houston Center
08:33PM 29.9772 -95.2886 268° West 175 201 400 -360 Descending Houston Center
08:34PM 29.9769 -95.3353 270° West 170 196 300 -120 Descending Houston Center